createdAt,value
2016-11-28T00:00:16.941Z,35.67
2016-11-28T00:00:57.484Z,35.67
2016-11-28T00:01:38.025Z,35.48
2016-11-28T00:02:18.572Z,35.38
2016-11-28T00:02:59.118Z,35.19
2016-11-28T00:03:39.650Z,35.38
2016-11-28T00:04:20.183Z,35.58
2016-11-28T00:05:00.714Z,35.67
2016-11-28T00:05:41.256Z,35.48
2016-11-28T00:06:21.791Z,35.38
2016-11-28T00:07:02.346Z,35.38
2016-11-28T00:07:42.891Z,35.19
2016-11-28T00:08:23.436Z,35.19
2016-11-28T00:09:03.978Z,35.19
2016-11-28T00:09:44.519Z,35.28
2016-11-28T00:10:25.067Z,35.28
2016-11-28T00:11:05.601Z,35.28
2016-11-28T00:11:46.144Z,35.19
2016-11-28T00:12:26.688Z,35.1
2016-11-28T00:13:07.246Z,35.28
2016-11-28T00:13:47.793Z,35.28
2016-11-28T00:14:28.334Z,35.38
2016-11-28T00:15:08.880Z,35.38
2016-11-28T00:15:49.430Z,35.58
2016-11-28T00:16:29.974Z,35.96
2016-11-28T00:17:10.530Z,35.86
2016-11-28T00:17:51.062Z,35.77
2016-11-28T00:18:31.623Z,35.86
2016-11-28T00:19:12.164Z,35.67
2016-11-28T00:19:52.710Z,35.58
2016-11-28T00:20:33.250Z,35.38
2016-11-28T00:21:13.798Z,35.48
2016-11-28T00:21:54.339Z,35.48
2016-11-28T00:22:34.881Z,35.19
2016-11-28T00:23:15.429Z,35.38
2016-11-28T00:23:55.983Z,35.19
2016-11-28T00:24:36.535Z,35.48
2016-11-28T00:25:17.079Z,35.38
2016-11-28T00:25:57.646Z,35.38
2016-11-28T00:26:38.184Z,35.38
2016-11-28T00:27:18.726Z,35.38
2016-11-28T00:27:59.267Z,35.38
2016-11-28T00:28:39.813Z,35.19
2016-11-28T00:29:20.352Z,35.28
2016-11-28T00:30:00.888Z,35.28
2016-11-28T00:30:41.446Z,35.19
2016-11-28T00:31:21.984Z,35.19
2016-11-28T00:32:02.533Z,35.19
2016-11-28T00:32:43.082Z,35.58
2016-11-28T00:33:23.649Z,35.77
2016-11-28T00:34:04.187Z,35.77
2016-11-28T00:34:44.737Z,35.67
2016-11-28T00:35:25.282Z,35.58
2016-11-28T00:36:05.827Z,35.77
2016-11-28T00:36:46.381Z,35.58
2016-11-28T00:37:26.931Z,35.48
2016-11-28T00:38:07.479Z,35.58
2016-11-28T00:38:48.017Z,35.38
2016-11-28T00:39:28.554Z,35.38
2016-11-28T00:40:09.097Z,35.28
2016-11-28T00:40:49.654Z,35.38
2016-11-28T00:41:30.200Z,35.48
2016-11-28T00:42:10.738Z,35.38
2016-11-28T00:42:51.295Z,35.38
2016-11-28T00:43:31.833Z,35.48
2016-11-28T00:44:12.367Z,35.38
2016-11-28T00:44:52.907Z,35.48
2016-11-28T00:45:33.441Z,35.58
2016-11-28T00:46:13.974Z,35.58
2016-11-28T00:46:54.527Z,35.67
2016-11-28T00:47:35.069Z,35.67
2016-11-28T00:48:15.613Z,35.67
2016-11-28T00:48:56.165Z,35.58
2016-11-28T00:49:36.711Z,35.96
2016-11-28T00:50:17.248Z,35.96
2016-11-28T00:50:57.790Z,35.67
2016-11-28T00:51:38.329Z,35.96
2016-11-28T00:52:18.874Z,35.67
2016-11-28T00:52:59.411Z,36.06
2016-11-28T00:53:39.959Z,35.77
2016-11-28T00:54:20.504Z,35.58
2016-11-28T00:55:01.059Z,35.86
2016-11-28T00:55:41.595Z,35.58
2016-11-28T00:56:22.125Z,35.38
2016-11-28T00:57:02.676Z,35.38
2016-11-28T00:57:43.226Z,35.19
2016-11-28T00:58:23.781Z,35.28
2016-11-28T00:59:04.318Z,35
2016-11-28T00:59:44.860Z,35.38
2016-11-28T01:00:25.396Z,35.38
2016-11-28T01:01:05.949Z,35.28
2016-11-28T01:01:46.489Z,35.28
2016-11-28T01:02:27.025Z,35.38
2016-11-28T01:03:07.568Z,35.19
2016-11-28T01:03:48.102Z,35.28
2016-11-28T01:04:28.645Z,35.28
2016-11-28T01:05:09.185Z,35.58
2016-11-28T01:05:49.735Z,35.38
2016-11-28T01:06:30.282Z,35.38
2016-11-28T01:07:10.825Z,35.38
2016-11-28T01:07:51.365Z,35.19
2016-11-28T01:08:31.910Z,35.19
2016-11-28T01:09:12.455Z,35.28
2016-11-28T01:09:53.001Z,35.28
2016-11-28T01:10:33.532Z,35.28
2016-11-28T01:11:14.083Z,35.28
2016-11-28T01:11:54.635Z,35.19
2016-11-28T01:12:35.173Z,35.28
2016-11-28T01:13:15.714Z,35.28
2016-11-28T01:13:56.263Z,35.48
2016-11-28T01:14:36.790Z,35.28
2016-11-28T01:15:17.331Z,35.48
2016-11-28T01:15:57.882Z,35.19
2016-11-28T01:16:38.426Z,35.19
2016-11-28T01:17:18.966Z,35.38
2016-11-28T01:17:59.507Z,35.28
2016-11-28T01:18:40.058Z,35.48
2016-11-28T01:19:20.607Z,35.48
2016-11-28T01:20:01.145Z,35.19
2016-11-28T01:20:41.699Z,35.58
2016-11-28T01:21:22.251Z,35.1
2016-11-28T01:22:02.789Z,35.19
2016-11-28T01:22:43.346Z,35.1
2016-11-28T01:23:23.889Z,35.28
2016-11-28T01:24:04.441Z,35.19
2016-11-28T01:24:44.987Z,35.67
2016-11-28T01:25:25.543Z,35.58
2016-11-28T01:26:06.081Z,35.58
2016-11-28T01:26:46.627Z,35.19
2016-11-28T01:27:27.162Z,35.28
2016-11-28T01:28:07.706Z,35.19
2016-11-28T01:28:48.266Z,34.52
2016-11-28T01:29:28.814Z,34.9
2016-11-28T01:30:09.367Z,34.7
2016-11-28T01:30:49.918Z,34.61
2016-11-28T01:31:30.466Z,34.8
2016-11-28T01:32:11.006Z,34.42
2016-11-28T01:32:51.545Z,34.52
2016-11-28T01:33:32.090Z,34.42
2016-11-28T01:34:12.628Z,34.32
2016-11-28T01:34:53.171Z,34.52
2016-11-28T01:35:33.724Z,34.61
2016-11-28T01:36:14.271Z,34.03
2016-11-28T01:36:54.809Z,34.32
2016-11-28T01:37:35.351Z,34.32
2016-11-28T01:38:15.897Z,34.42
2016-11-28T01:38:56.437Z,34.42
2016-11-28T01:39:36.978Z,34.32
2016-11-28T01:40:17.531Z,34.32
2016-11-28T01:40:58.077Z,34.22
2016-11-28T01:41:38.633Z,34.13
2016-11-28T01:42:19.169Z,34.42
2016-11-28T01:42:59.729Z,34.32
2016-11-28T01:43:40.280Z,34.7
2016-11-28T01:44:20.817Z,34.61
2016-11-28T01:45:01.367Z,34.7
2016-11-28T01:45:41.912Z,34.7
2016-11-28T01:46:22.468Z,34.52
2016-11-28T01:47:03.015Z,34.52
2016-11-28T01:47:43.565Z,34.42
2016-11-28T01:48:24.110Z,34.52
2016-11-28T01:49:04.651Z,34.32
2016-11-28T01:49:45.195Z,34.52
2016-11-28T01:50:25.743Z,34.52
2016-11-28T01:51:06.289Z,34.22
2016-11-28T01:51:46.926Z,34.61
2016-11-28T01:52:27.415Z,34.61
2016-11-28T01:53:07.964Z,34.61
2016-11-28T01:53:48.503Z,34.42
2016-11-28T01:54:29.050Z,34.22
2016-11-28T01:55:09.575Z,34.32
2016-11-28T01:55:50.123Z,34.42
2016-11-28T01:56:30.667Z,34.13
2016-11-28T01:57:11.207Z,34.22
2016-11-28T01:57:51.747Z,34.03
2016-11-28T01:58:32.291Z,34.42
2016-11-28T01:59:12.826Z,34.13
2016-11-28T01:59:53.386Z,34.42
2016-11-28T02:00:33.916Z,34.42
2016-11-28T02:01:14.456Z,34.61
2016-11-28T02:01:54.998Z,34.42
2016-11-28T02:02:35.552Z,34.03
2016-11-28T02:03:16.102Z,34.61
2016-11-28T02:03:56.658Z,34.32
2016-11-28T02:04:37.200Z,34.32
2016-11-28T02:05:17.754Z,34.32
2016-11-28T02:05:58.299Z,34.22
2016-11-28T02:06:38.853Z,34.13
2016-11-28T02:07:19.395Z,34.32
2016-11-28T02:07:59.943Z,34.32
2016-11-28T02:08:40.499Z,34.32
2016-11-28T02:09:21.042Z,34.32
2016-11-28T02:10:01.582Z,34.22
2016-11-28T02:10:42.128Z,34.13
2016-11-28T02:11:22.657Z,34.22
2016-11-28T02:12:03.197Z,34.32
2016-11-28T02:12:43.731Z,34.32
2016-11-28T02:13:24.269Z,34.22
2016-11-28T02:14:04.821Z,34.42
2016-11-28T02:14:45.356Z,34.32
2016-11-28T02:15:25.905Z,34.42
2016-11-28T02:16:06.438Z,34.42
2016-11-28T02:16:46.989Z,34.32
2016-11-28T02:17:27.530Z,34.42
2016-11-28T02:18:08.074Z,34.42
2016-11-28T02:18:48.619Z,34.32
2016-11-28T02:19:29.149Z,34.32
2016-11-28T02:20:09.700Z,34.42
2016-11-28T02:20:50.241Z,34.42
2016-11-28T02:21:30.787Z,34.42
2016-11-28T02:22:11.330Z,34.42
2016-11-28T02:22:51.890Z,34.22
2016-11-28T02:23:32.417Z,34.42
2016-11-28T02:24:12.967Z,34.03
2016-11-28T02:24:53.516Z,34.03
2016-11-28T02:25:34.060Z,34.13
2016-11-28T02:26:14.621Z,34.42
2016-11-28T02:26:55.162Z,34.42
2016-11-28T02:27:35.707Z,34.42
2016-11-28T02:28:16.245Z,34.52
2016-11-28T02:28:56.779Z,34.52
2016-11-28T02:29:37.347Z,34.52
2016-11-28T02:30:17.865Z,34.42
2016-11-28T02:30:58.399Z,34.42
2016-11-28T02:31:38.948Z,34.32
2016-11-28T02:32:19.477Z,34.03
2016-11-28T02:33:00.026Z,34.22
2016-11-28T02:33:40.574Z,34.32
2016-11-28T02:34:21.115Z,34.32
2016-11-28T02:35:01.662Z,34.42
2016-11-28T02:35:42.207Z,34.32
2016-11-28T02:36:22.752Z,34.42
2016-11-28T02:37:03.299Z,34.13
2016-11-28T02:37:43.843Z,34.52
2016-11-28T02:38:24.385Z,34.61
2016-11-28T02:39:04.922Z,34.8
2016-11-28T02:39:45.459Z,35.1
2016-11-28T02:40:26.011Z,35.28
2016-11-28T02:41:06.544Z,35.28
2016-11-28T02:41:47.084Z,35.58
2016-11-28T02:42:27.651Z,35.28
2016-11-28T02:43:08.186Z,35.28
2016-11-28T02:43:48.739Z,35.38
2016-11-28T02:44:29.283Z,35.28
2016-11-28T02:45:09.840Z,35.38
2016-11-28T02:45:50.388Z,35.38
2016-11-28T02:46:30.936Z,35.38
2016-11-28T02:47:11.474Z,35.28
2016-11-28T02:47:52.016Z,35.38
2016-11-28T02:48:32.561Z,35.38
2016-11-28T02:49:13.105Z,35.48
2016-11-28T02:49:53.658Z,35.19
2016-11-28T02:50:34.202Z,35.1
2016-11-28T02:51:14.751Z,35.48
2016-11-28T02:51:55.294Z,35.38
2016-11-28T02:52:35.859Z,35.96
2016-11-28T02:53:16.409Z,35.58
2016-11-28T02:53:56.947Z,35.58
2016-11-28T02:54:37.497Z,35.96
2016-11-28T02:55:18.035Z,35.67
2016-11-28T02:55:58.580Z,35.67
2016-11-28T02:56:39.127Z,35.67
2016-11-28T02:57:19.665Z,35.38
2016-11-28T02:58:00.205Z,35.38
2016-11-28T02:58:40.746Z,35.28
2016-11-28T02:59:21.287Z,35.28
2016-11-28T03:00:01.937Z,35.48
2016-11-28T03:00:42.468Z,35.19
2016-11-28T03:01:23.002Z,35.1
2016-11-28T03:02:03.545Z,35.38
2016-11-28T03:02:44.081Z,35.28
2016-11-28T03:03:24.624Z,34.9
2016-11-28T03:04:05.167Z,35.19
2016-11-28T03:04:45.717Z,35.28
2016-11-28T03:05:26.252Z,35.67
2016-11-28T03:06:06.794Z,35.38
2016-11-28T03:06:47.348Z,35.28
2016-11-28T03:07:27.877Z,35.28
2016-11-28T03:08:08.425Z,35.28
2016-11-28T03:08:48.970Z,35.38
2016-11-28T03:09:29.505Z,35.28
2016-11-28T03:10:10.044Z,35.28
2016-11-28T03:10:50.588Z,35.58
2016-11-28T03:11:31.132Z,35.19
2016-11-28T03:12:11.677Z,35.19
2016-11-28T03:12:52.220Z,35.19
2016-11-28T03:13:32.761Z,35.58
2016-11-28T03:14:13.303Z,35.1
2016-11-28T03:14:53.857Z,35.38
2016-11-28T03:15:34.392Z,35.19
2016-11-28T03:16:14.936Z,35.38
2016-11-28T03:16:55.477Z,35.28
2016-11-28T03:17:36.010Z,35.38
2016-11-28T03:18:16.550Z,35.38
2016-11-28T03:18:57.091Z,35.38
2016-11-28T03:19:37.639Z,35.58
2016-11-28T03:20:18.188Z,35.58
2016-11-28T03:20:58.717Z,35.38
2016-11-28T03:21:39.266Z,35.67
2016-11-28T03:22:19.823Z,35.48
2016-11-28T03:23:00.365Z,35.28
2016-11-28T03:23:40.913Z,35.38
2016-11-28T03:24:21.462Z,35.28
2016-11-28T03:25:02.019Z,35.1
2016-11-28T03:25:42.572Z,35.48
2016-11-28T03:26:23.125Z,35.77
2016-11-28T03:27:03.671Z,35.58
2016-11-28T03:27:44.218Z,35.58
2016-11-28T03:28:24.763Z,35.19
2016-11-28T03:29:05.300Z,35.19
2016-11-28T03:29:45.873Z,35.1
2016-11-28T03:30:26.417Z,35.38
2016-11-28T03:31:06.955Z,35.28
2016-11-28T03:31:47.509Z,35.19
2016-11-28T03:32:28.052Z,35.58
2016-11-28T03:33:08.606Z,35.19
2016-11-28T03:33:49.151Z,35.1
2016-11-28T03:34:29.710Z,35.28
2016-11-28T03:35:10.251Z,35.38
2016-11-28T03:35:50.805Z,35.58
2016-11-28T03:36:31.354Z,35.67
2016-11-28T03:37:11.904Z,35.38
2016-11-28T03:37:52.446Z,35.38
2016-11-28T03:38:32.985Z,35.19
2016-11-28T03:39:13.524Z,35.38
2016-11-28T03:39:54.069Z,35.19
2016-11-28T03:40:34.609Z,35.19
2016-11-28T03:41:15.157Z,34.61
2016-11-28T03:41:55.723Z,34.7
2016-11-28T03:42:36.261Z,34.9
2016-11-28T03:43:16.820Z,34.9
2016-11-28T03:43:57.366Z,35.1
2016-11-28T03:44:37.918Z,34.9
2016-11-28T03:45:18.455Z,35
2016-11-28T03:45:59.006Z,34.8
2016-11-28T03:46:39.544Z,34.7
2016-11-28T03:47:20.098Z,35
2016-11-28T03:48:00.641Z,34.8
2016-11-28T03:48:41.185Z,34.52
2016-11-28T03:49:21.735Z,34.7
2016-11-28T03:50:02.285Z,34.8
2016-11-28T03:50:42.838Z,34.9
2016-11-28T03:51:23.385Z,34.61
2016-11-28T03:52:03.937Z,34.61
2016-11-28T03:52:44.484Z,34.7
2016-11-28T03:53:25.036Z,34.32
2016-11-28T03:54:05.576Z,34.52
2016-11-28T03:54:46.122Z,34.52
2016-11-28T03:55:26.668Z,34.52
2016-11-28T03:56:07.198Z,34.42
2016-11-28T03:56:47.740Z,34.52
2016-11-28T03:57:28.277Z,34.42
2016-11-28T03:58:08.841Z,34.61
2016-11-28T03:58:49.388Z,34.8
2016-11-28T03:59:29.938Z,34.52
2016-11-28T04:00:10.477Z,34.9
2016-11-28T04:00:51.024Z,35.19
2016-11-28T04:01:31.566Z,35
2016-11-28T04:02:12.116Z,35.28
2016-11-28T04:02:52.654Z,34.9
2016-11-28T04:03:33.200Z,35
2016-11-28T04:04:13.748Z,34.8
2016-11-28T04:04:54.298Z,34.61
2016-11-28T04:05:34.845Z,34.9
2016-11-28T04:06:15.390Z,34.7
2016-11-28T04:06:55.948Z,34.8
2016-11-28T04:07:36.492Z,34.61
2016-11-28T04:08:17.037Z,34.42
2016-11-28T04:08:57.578Z,34.9
2016-11-28T04:09:38.123Z,34.8
2016-11-28T04:10:18.663Z,34.32
2016-11-28T04:10:59.204Z,34.7
2016-11-28T04:11:39.756Z,34.42
2016-11-28T04:12:20.298Z,34.32
2016-11-28T04:13:00.837Z,34.42
2016-11-28T04:13:41.384Z,34.7
2016-11-28T04:14:21.929Z,34.42
2016-11-28T04:15:02.466Z,34.42
2016-11-28T04:15:43.010Z,34.42
2016-11-28T04:16:23.559Z,34.42
2016-11-28T04:17:04.099Z,34.61
2016-11-28T04:17:44.639Z,34.22
2016-11-28T04:18:25.207Z,34.32
2016-11-28T04:19:05.736Z,34.42
2016-11-28T04:19:46.282Z,34.03
2016-11-28T04:20:26.821Z,34.22
2016-11-28T04:21:07.361Z,34.22
2016-11-28T04:21:47.905Z,34.22
2016-11-28T04:22:28.443Z,34.32
2016-11-28T04:23:08.980Z,34.32
2016-11-28T04:23:49.537Z,34.13
2016-11-28T04:24:30.077Z,34.52
2016-11-28T04:25:10.646Z,34.22
2016-11-28T04:25:51.197Z,34.22
2016-11-28T04:26:31.738Z,34.32
2016-11-28T04:27:12.282Z,34.32
2016-11-28T04:27:52.840Z,34.32
2016-11-28T04:28:33.376Z,34.32
2016-11-28T04:29:13.933Z,34.22
2016-11-28T04:29:54.484Z,34.22
2016-11-28T04:30:35.016Z,34.32
2016-11-28T04:31:15.581Z,34.42
2016-11-28T04:31:56.130Z,34.22
2016-11-28T04:32:36.688Z,34.32
2016-11-28T04:33:17.234Z,34.22
2016-11-28T04:33:57.792Z,34.32
2016-11-28T04:34:38.333Z,33.84
2016-11-28T04:35:18.887Z,33.94
2016-11-28T04:35:59.439Z,33.74
2016-11-28T04:36:39.978Z,34.42
2016-11-28T04:37:20.528Z,34.42
2016-11-28T04:38:01.062Z,34.13
2016-11-28T04:38:41.608Z,33.84
2016-11-28T04:39:22.157Z,33.84
2016-11-28T04:40:02.696Z,33.84
2016-11-28T04:40:43.224Z,34.03
2016-11-28T04:41:23.762Z,33.74
2016-11-28T04:42:04.331Z,33.74
2016-11-28T04:42:44.874Z,33.84
2016-11-28T04:43:25.412Z,33.94
2016-11-28T04:44:05.968Z,34.03
2016-11-28T04:44:46.513Z,33.84
2016-11-28T04:45:27.058Z,33.94
2016-11-28T04:46:07.598Z,33.84
2016-11-28T04:46:48.142Z,33.94
2016-11-28T04:47:28.678Z,33.84
2016-11-28T04:48:09.231Z,34.03
2016-11-28T04:48:49.779Z,33.74
2016-11-28T04:49:30.328Z,33.94
2016-11-28T04:50:10.865Z,33.65
2016-11-28T04:50:51.410Z,33.17
2016-11-28T04:51:31.971Z,33.26
2016-11-28T04:52:12.508Z,33.26
2016-11-28T04:52:53.047Z,33.36
2016-11-28T04:53:33.582Z,33.55
2016-11-28T04:54:14.123Z,33.36
2016-11-28T04:54:54.675Z,33.36
2016-11-28T04:55:35.202Z,33.65
2016-11-28T04:56:15.742Z,33.65
2016-11-28T04:56:56.281Z,33.55
2016-11-28T04:57:36.832Z,33.26
2016-11-28T04:58:17.366Z,33.36
2016-11-28T04:58:57.907Z,33.36
2016-11-28T04:59:38.441Z,33.36
2016-11-28T05:00:18.983Z,33.26
2016-11-28T05:00:59.539Z,33.17
2016-11-28T05:01:40.060Z,33.07
2016-11-28T05:02:20.602Z,33.26
2016-11-28T05:03:01.146Z,33.45
2016-11-28T05:03:41.695Z,33.36
2016-11-28T05:04:22.239Z,33.55
2016-11-28T05:05:02.784Z,33.45
2016-11-28T05:05:43.329Z,33.36
2016-11-28T05:06:23.862Z,33.36
2016-11-28T05:07:04.406Z,33.26
2016-11-28T05:07:44.938Z,33.65
2016-11-28T05:08:25.481Z,33.94
2016-11-28T05:09:06.018Z,33.74
2016-11-28T05:09:46.559Z,33.94
2016-11-28T05:10:27.105Z,33.94
2016-11-28T05:11:07.642Z,33.45
2016-11-28T05:11:48.185Z,33.17
2016-11-28T05:12:28.742Z,33.45
2016-11-28T05:13:09.281Z,33.55
2016-11-28T05:13:49.827Z,33.26
2016-11-28T05:14:30.368Z,33.94
2016-11-28T05:15:10.913Z,33.55
2016-11-28T05:15:51.451Z,33.26
2016-11-28T05:16:32.007Z,33.17
2016-11-28T05:17:12.541Z,33.45
2016-11-28T05:17:53.089Z,33.36
2016-11-28T05:18:33.636Z,33.45
2016-11-28T05:19:14.179Z,33.17
2016-11-28T05:19:54.723Z,32.87
2016-11-28T05:20:35.267Z,33.17
2016-11-28T05:21:15.821Z,34.13
2016-11-28T05:21:56.371Z,33.74
2016-11-28T05:22:36.916Z,34.13
2016-11-28T05:23:17.471Z,34.13
2016-11-28T05:23:58.014Z,34.42
2016-11-28T05:24:38.558Z,34.22
2016-11-28T05:25:19.103Z,34.32
2016-11-28T05:25:59.644Z,33.84
2016-11-28T05:26:40.198Z,33.74
2016-11-28T05:27:20.737Z,33.84
2016-11-28T05:28:01.287Z,33.84
2016-11-28T05:28:41.840Z,33.84
2016-11-28T05:29:22.378Z,33.74
2016-11-28T05:30:02.919Z,34.03
2016-11-28T05:30:43.456Z,33.84
2016-11-28T05:31:24.025Z,33.36
2016-11-28T05:32:04.557Z,33.26
2016-11-28T05:32:45.105Z,33.36
2016-11-28T05:33:25.645Z,33.74
2016-11-28T05:34:06.191Z,33.84
2016-11-28T05:34:46.733Z,34.03
2016-11-28T05:35:27.273Z,33.26
2016-11-28T05:36:07.828Z,33.07
2016-11-28T05:36:48.374Z,33.07
2016-11-28T05:37:28.931Z,32.97
2016-11-28T05:38:09.480Z,32.97
2016-11-28T05:38:50.031Z,33.17
2016-11-28T05:39:30.585Z,33.07
2016-11-28T05:40:11.110Z,33.07
2016-11-28T05:40:51.665Z,32.97
2016-11-28T05:41:32.217Z,33.07
2016-11-28T05:42:12.774Z,33.26
2016-11-28T05:42:53.320Z,33.74
2016-11-28T05:43:33.849Z,33.45
2016-11-28T05:44:14.397Z,33.36
2016-11-28T05:44:54.947Z,33.07
2016-11-28T05:45:35.482Z,32.87
2016-11-28T05:46:16.035Z,32.87
2016-11-28T05:46:56.581Z,32.87
2016-11-28T05:47:37.123Z,32.97
2016-11-28T05:48:17.679Z,32.87
2016-11-28T05:48:58.226Z,32.49
2016-11-28T05:49:38.758Z,32.49
2016-11-28T05:50:19.303Z,32.39
2016-11-28T05:50:59.849Z,32.59
2016-11-28T05:51:40.396Z,32.68
2016-11-28T05:52:20.940Z,32.68
2016-11-28T05:53:01.481Z,33.07
2016-11-28T05:53:42.004Z,32.68
2016-11-28T05:54:22.542Z,32.2
2016-11-28T05:55:03.082Z,32.39
2016-11-28T05:55:43.624Z,32.68
2016-11-28T05:56:24.155Z,32.97
2016-11-28T05:57:04.696Z,32.2
2016-11-28T05:57:45.241Z,32.1
2016-11-28T05:58:25.785Z,32.01
2016-11-28T05:59:06.324Z,32.01
2016-11-28T05:59:46.867Z,31.81
2016-11-28T06:00:27.414Z,31.91
2016-11-28T06:01:07.948Z,31.81
2016-11-28T06:01:48.495Z,31.91
2016-11-28T06:02:29.036Z,31.81
2016-11-28T06:03:09.571Z,32.01
2016-11-28T06:03:50.111Z,32.2
2016-11-28T06:04:30.659Z,32.2
2016-11-28T06:05:11.197Z,32.01
2016-11-28T06:05:51.736Z,32.59
2016-11-28T06:06:32.281Z,32.78
2016-11-28T06:07:12.827Z,32.39
2016-11-28T06:07:53.371Z,32.87
2016-11-28T06:08:33.912Z,32.78
2016-11-28T06:09:14.474Z,32.97
2016-11-28T06:09:55.002Z,33.17
2016-11-28T06:10:35.535Z,33.36
2016-11-28T06:11:16.077Z,33.45
2016-11-28T06:11:56.628Z,33.84
2016-11-28T06:12:37.169Z,33.74
2016-11-28T06:13:17.717Z,33.74
2016-11-28T06:13:58.256Z,33.55
2016-11-28T06:14:38.821Z,33.94
2016-11-28T06:15:19.368Z,34.03
2016-11-28T06:15:59.908Z,34.32
2016-11-28T06:16:40.455Z,34.03
2016-11-28T06:17:21.020Z,34.32
2016-11-28T06:18:01.566Z,34.22
2016-11-28T06:18:42.129Z,34.61
2016-11-28T06:19:22.671Z,34.32
2016-11-28T06:20:03.211Z,34.13
2016-11-28T06:20:43.747Z,33.55
2016-11-28T06:21:24.287Z,33.94
2016-11-28T06:22:04.827Z,34.13
2016-11-28T06:22:45.369Z,33.36
2016-11-28T06:23:25.905Z,32.97
2016-11-28T06:24:06.452Z,32.68
2016-11-28T06:24:46.999Z,32.87
2016-11-28T06:25:27.540Z,32.78
2016-11-28T06:26:08.091Z,32.97
2016-11-28T06:26:48.641Z,32.78
2016-11-28T06:27:29.182Z,32.87
2016-11-28T06:28:09.724Z,32.79
2016-11-28T06:28:50.276Z,32.89
2016-11-28T06:29:30.817Z,32.99
2016-11-28T06:30:11.361Z,32.99
2016-11-28T06:30:51.905Z,33.18
2016-11-28T06:31:32.425Z,32.97
2016-11-28T06:32:12.955Z,32.97
2016-11-28T06:32:53.506Z,32.97
2016-11-28T06:33:34.068Z,32.97
2016-11-28T06:34:14.613Z,32.97
2016-11-28T06:34:55.160Z,32.97
2016-11-28T06:35:35.710Z,32.68
2016-11-28T06:36:16.251Z,32.87
2016-11-28T06:36:56.815Z,32.97
2016-11-28T06:37:37.360Z,32.78
2016-11-28T06:38:17.908Z,32.78
2016-11-28T06:38:58.438Z,32.87
2016-11-28T06:39:38.981Z,33.07
2016-11-28T06:40:19.521Z,32.59
2016-11-28T06:41:00.077Z,32.97
2016-11-28T06:41:40.629Z,32.87
2016-11-28T06:42:21.172Z,32.78
2016-11-28T06:43:01.719Z,32.97
2016-11-28T06:43:42.249Z,33.07
2016-11-28T06:44:22.786Z,32.49
2016-11-28T06:45:03.327Z,32.39
2016-11-28T06:45:43.867Z,32.2
2016-11-28T06:46:24.409Z,32.29
2016-11-28T06:47:04.955Z,32.49
2016-11-28T06:47:45.499Z,32.29
2016-11-28T06:48:26.034Z,32.29
2016-11-28T06:49:06.587Z,32.29
2016-11-28T06:49:47.136Z,32.1
2016-11-28T06:50:27.689Z,32.2
2016-11-28T06:51:08.238Z,31.91
2016-11-28T06:51:48.772Z,32.1
2016-11-28T06:52:29.306Z,32.2
2016-11-28T06:53:09.847Z,32.01
2016-11-28T06:53:50.383Z,32.01
2016-11-28T06:54:30.929Z,31.91
2016-11-28T06:55:11.473Z,31.91
2016-11-28T06:55:52.024Z,32.01
2016-11-28T06:56:32.563Z,31.91
2016-11-28T06:57:13.118Z,31.91
2016-11-28T06:57:53.657Z,31.81
2016-11-28T06:58:34.199Z,32.29
2016-11-28T06:59:14.743Z,31.81
2016-11-28T06:59:55.287Z,32.1
2016-11-28T07:00:35.833Z,32.01
2016-11-28T07:01:16.377Z,32.1
2016-11-28T07:01:56.923Z,32.01
2016-11-28T07:02:37.464Z,31.91
2016-11-28T07:03:18.006Z,31.91
2016-11-28T07:03:58.544Z,31.91
2016-11-28T07:04:39.087Z,32.01
2016-11-28T07:05:19.633Z,32.29
2016-11-28T07:06:00.189Z,31.72
2016-11-28T07:06:40.730Z,31.91
2016-11-28T07:07:21.277Z,31.81
2016-11-28T07:08:01.817Z,31.81
2016-11-28T07:08:42.372Z,32.1
2016-11-28T07:09:22.915Z,31.72
2016-11-28T07:10:03.457Z,31.72
2016-11-28T07:10:44.009Z,31.52
2016-11-28T07:11:24.551Z,31.33
2016-11-28T07:12:05.104Z,31.33
2016-11-28T07:12:45.652Z,31.52
2016-11-28T07:13:26.189Z,31.52
2016-11-28T07:14:06.733Z,31.04
2016-11-28T07:14:47.273Z,31.33
2016-11-28T07:15:27.810Z,31.33
2016-11-28T07:16:08.350Z,31.33
2016-11-28T07:16:48.902Z,31.04
2016-11-28T07:17:29.446Z,31.52
2016-11-28T07:18:10.003Z,31.52
2016-11-28T07:18:50.547Z,31.52
2016-11-28T07:19:31.104Z,31.72
2016-11-28T07:20:11.648Z,31.04
2016-11-28T07:20:52.199Z,31.33
2016-11-28T07:21:32.742Z,31.04
2016-11-28T07:22:13.278Z,31.33
2016-11-28T07:22:53.821Z,31.33
2016-11-28T07:23:34.373Z,31.33
2016-11-28T07:24:14.915Z,31.62
2016-11-28T07:24:55.466Z,31.04
2016-11-28T07:25:36.014Z,31.33
2016-11-28T07:26:16.539Z,31.52
2016-11-28T07:26:57.080Z,31.33
2016-11-28T07:27:37.630Z,31.62
2016-11-28T07:28:18.179Z,31.43
2016-11-28T07:28:58.728Z,31.52
2016-11-28T07:29:39.263Z,31.91
2016-11-28T07:30:19.807Z,31.72
2016-11-28T07:31:00.349Z,32.2
2016-11-28T07:31:40.888Z,32.2
2016-11-28T07:32:21.439Z,31.91
2016-11-28T07:33:01.990Z,31.62
2016-11-28T07:33:42.540Z,31.62
2016-11-28T07:34:23.096Z,31.62
2016-11-28T07:35:03.635Z,31.72
2016-11-28T07:35:44.189Z,31.43
2016-11-28T07:36:24.729Z,31.33
2016-11-28T07:37:05.271Z,31.43
2016-11-28T07:37:45.815Z,31.52
2016-11-28T07:38:26.363Z,31.43
2016-11-28T07:39:06.922Z,31.24
2016-11-28T07:39:47.472Z,31.72
2016-11-28T07:40:28.016Z,31.81
2016-11-28T07:41:08.560Z,32.2
2016-11-28T07:41:49.098Z,32.2
2016-11-28T07:42:29.649Z,32.1
2016-11-28T07:43:10.197Z,31.81
2016-11-28T07:43:50.733Z,32.01
2016-11-28T07:44:31.283Z,32.01
2016-11-28T07:45:11.826Z,32.01
2016-11-28T07:45:52.371Z,32.29
2016-11-28T07:46:32.910Z,32.2
2016-11-28T07:47:13.439Z,31.91
2016-11-28T07:47:53.971Z,32.01
2016-11-28T07:48:34.510Z,31.91
2016-11-28T07:49:15.046Z,32.29
2016-11-28T07:49:55.590Z,32.01
2016-11-28T07:50:36.132Z,31.81
2016-11-28T07:51:16.677Z,32.29
2016-11-28T07:51:57.220Z,31.81
2016-11-28T07:52:37.765Z,31.91
2016-11-28T07:53:18.319Z,32.1
2016-11-28T07:53:58.848Z,32.01
2016-11-28T07:54:39.399Z,32.01
2016-11-28T07:55:19.956Z,32.1
2016-11-28T07:56:00.499Z,32.1
2016-11-28T07:56:41.046Z,32.1
2016-11-28T07:57:21.583Z,31.81
2016-11-28T07:58:02.131Z,32.2
2016-11-28T07:58:42.678Z,32.01
2016-11-28T07:59:23.221Z,32.2
2016-11-28T08:00:03.764Z,32.2
2016-11-28T08:00:44.319Z,32.2
2016-11-28T08:01:24.848Z,32.1
2016-11-28T08:02:05.391Z,32.39
2016-11-28T08:02:45.920Z,32.2
2016-11-28T08:03:26.465Z,32.68
2016-11-28T08:04:07.004Z,32.68
2016-11-28T08:04:47.546Z,32.39
2016-11-28T08:05:28.099Z,31.91
2016-11-28T08:06:08.640Z,31.81
2016-11-28T08:06:49.178Z,32.01
2016-11-28T08:07:29.710Z,32.1
2016-11-28T08:08:10.268Z,31.72
2016-11-28T08:08:50.806Z,31.72
2016-11-28T08:09:31.354Z,31.62
2016-11-28T08:10:11.890Z,31.24
2016-11-28T08:10:52.432Z,31.04
2016-11-28T08:11:32.980Z,31.04
2016-11-28T08:12:13.515Z,31.43
2016-11-28T08:12:54.075Z,31.62
2016-11-28T08:13:34.616Z,31.72
2016-11-28T08:14:15.174Z,32.2
2016-11-28T08:14:55.711Z,32.1
2016-11-28T08:15:36.251Z,31.81
2016-11-28T08:16:16.799Z,31.81
2016-11-28T08:16:57.341Z,31.81
2016-11-28T08:17:37.886Z,32.1
2016-11-28T08:18:18.450Z,32.01
2016-11-28T08:18:58.977Z,31.91
2016-11-28T08:19:39.515Z,31.91
2016-11-28T08:20:20.065Z,31.81
2016-11-28T08:21:00.602Z,32.01
2016-11-28T08:21:41.148Z,32.2
2016-11-28T08:22:21.700Z,31.91
2016-11-28T08:23:02.250Z,31.72
2016-11-28T08:23:42.793Z,31.91
2016-11-28T08:24:23.336Z,31.81
2016-11-28T08:25:03.876Z,31.52
2016-11-28T08:25:44.411Z,31.33
2016-11-28T08:26:24.959Z,31.24
2016-11-28T08:27:05.499Z,30.85
2016-11-28T08:27:46.038Z,30.85
2016-11-28T08:28:26.573Z,31.04
2016-11-28T08:29:07.111Z,30.94
2016-11-28T08:29:47.650Z,30.94
2016-11-28T08:30:28.189Z,30.76
2016-11-28T08:31:08.732Z,31.33
2016-11-28T08:31:49.281Z,31.24
2016-11-28T08:32:29.828Z,31.14
2016-11-28T08:33:10.376Z,31.24
2016-11-28T08:33:50.931Z,31.24
2016-11-28T08:34:31.474Z,31.24
2016-11-28T08:35:12.017Z,31.33
2016-11-28T08:35:52.563Z,31.24
2016-11-28T08:36:33.101Z,31.14
2016-11-28T08:37:13.640Z,31.04
2016-11-28T08:37:54.183Z,31.04
2016-11-28T08:38:34.724Z,31.52
2016-11-28T08:39:15.261Z,31.33
2016-11-28T08:39:55.800Z,31.62
2016-11-28T08:40:36.353Z,31.14
2016-11-28T08:41:16.890Z,31.04
2016-11-28T08:41:57.431Z,31.04
2016-11-28T08:42:37.974Z,31.04
2016-11-28T08:43:18.543Z,31.14
2016-11-28T08:43:59.086Z,31.24